• Join FlightAware (Why Join?)
  • Login
  • US Flag 
03:04PM EST


 

Airport Tracker/Info


-or-


 

Live Flight TrackerFlight Track Log ✈ AAL832 ✈ 21-Aug-2013 ✈ KORD - KMIA

Flight Track Log - Related Links

Times and Time Zones

All times are in EDT time to prevent confusion due to time zone crossing. See the AAL832 flight status page for this flight to view local times or setup timezone preferences in your user account.

Time Position Orientation Groundspeed Altitude Reporting Facility
EDT Latitude Longitude Course Direction KTS MPH feet Rate Location/Type
05:23PM 41.9167 -87.9500 157° South 207 238 4,100  Level Chicago TRACON
05:25PM 41.6462 -87.7109 189° South  Level Estimated
05:25PM 41.8333 -88.0414 219° Southwest 240 276 5,000  Level Chicago Center
05:26PM 41.5343 -87.6460 189° South  Level Estimated
05:26PM 41.7636 -88.0256 170° South 264 304 5,200  Level Chicago Center
05:27PM 41.4224 -87.5815 194° South  Level Estimated
05:27PM 41.6719 -88.0217 178° South 284 327 8,500  Level Chicago Center
05:28PM 41.3104 -87.5171 180° South  Level Estimated
05:28PM 41.5872 -88.0236 181° South 302 348 11,800  Level Chicago Center
05:29PM 41.1993 -87.4534 157° South  Level Estimated
05:29PM 41.4983 -88.0267 181° South 317 365 15,200  Level Chicago Center
05:30PM 41.4042 -88.0344 184° South 336 387 17,000 2,160 Climbing Chicago Center
05:31PM 41.2861 -88.0706 193° South 386 444 19,700 2,460 Climbing Chicago Center
05:32PM 41.1794 -88.1042 193° South 393 452 22,100 2,040 Climbing Chicago Center
05:33PM 41.0667 -88.1364 192° South 412 474 24,000 1,500 Climbing Chicago Center
05:34PM 40.9461 -88.1694 192° South 437 503 25,300 1,560 Climbing Chicago Center
05:35PM 40.7939 -88.2144 193° South 466 536 27,300 1,740 Climbing Chicago Center
05:36PM 40.6636 -88.2500 192° South 477 549 28,900 1,560 Climbing Chicago Center
05:37PM 40.5308 -88.2875 192° South 488 562 30,600 1,680 Climbing Chicago Center
05:38PM 40.3986 -88.3269 193° South 490 564 32,400 1,620 Climbing Chicago Center
05:39PM 40.2694 -88.3708 195° South 484 557 34,000 1,560 Climbing Chicago Center
05:40PM 40.1169 -88.4206 194° South 483 556 35,700 1,500 Climbing Chicago Center
05:41PM 39.9858 -88.4642 194° South 479 551 37,200 1,080 Climbing Chicago Center
05:42PM 39.8611 -88.5047 194° South 473 544 38,000 360 Climbing Kansas City Center
05:43PM 39.7322 -88.5456 194° South 473 544 38,000  Level Kansas City Center
05:44PM 39.5994 -88.5889 194° South 483 556 38,000  Level Kansas City Center
05:46PM 39.4697 -88.6314 194° South 482 555 38,000  Level Kansas City Center
05:47PM 39.3319 -88.6781 195° South 475 547 38,000  Level Kansas City Center
05:48PM 39.2042 -88.7189 194° South 473 544 38,000  Level Kansas City Center
05:49PM 39.0758 -88.7592 194° South 474 545 38,000  Level Kansas City Center
05:50PM 38.9486 -88.8000 194° South 471 542 38,000  Level Kansas City Center
05:51PM 38.7911 -88.8225 186° South 479 551 38,000  Level Kansas City Center
05:52PM 38.6606 -88.8367 185° South 474 545 38,000  Level Kansas City Center
05:53PM 38.5169 -88.8500 184° South 477 549 38,000  Level Kansas City Center
05:54PM 38.3856 -88.8622 184° South 475 547 38,000  Level Kansas City Center
05:55PM 38.2672 -88.8864 189° South 469 540 38,000  Level Kansas City Center
05:56PM 38.1408 -88.9314 196° South 467 537 38,000  Level Kansas City Center
05:57PM 38.0167 -88.9761 196° South 466 536 38,000  Level Kansas City Center
05:58PM 37.8669 -89.0281 195° South 465 535 38,000  Level Kansas City Center
05:59PM 37.7447 -89.0672 194° South 458 527 38,000  Level Kansas City Center
06:00PM 37.6133 -89.0589 177° South 463 533 38,000  Level Kansas City Center
06:01PM 37.4836 -89.0514 177° South 466 536 38,000  Level Kansas City Center
06:02PM 37.3331 -89.0778 188° South 457 526 38,000  Level Kansas City Center
06:03PM 37.2100 -89.1269 198° South 461 531 38,000  Level Kansas City Center
06:04PM 37.0892 -89.1758 198° South 459 528 38,000  Level Kansas City Center
06:05PM 36.9697 -89.2244 198° South 455 524 38,000  Level Kansas City Center
06:06PM 36.8208 -89.2867 198° South 461 531 38,000  Level Memphis Center
06:07PM 36.6983 -89.3347 197° South 461 531 38,000  Level Memphis Center
06:08PM 36.5822 -89.3853 199° South 461 531 38,000  Level Memphis Center
06:09PM 36.4575 -89.4383 199° South 467 537 38,000  Level Memphis Center
06:10PM 36.3411 -89.4783 195° South 481 554 38,000  Level Memphis Center
06:11PM 36.2161 -89.5261 194° South 481 554 38,000  Level Memphis Center
06:12PM 36.2030 -89.5374 194° South  Level FlightAware Approximate
06:12PM 36.0956 -89.5708 197° South 468 539 38,000  Level Memphis Center
06:13PM 35.9728 -89.6158 197° South 463 533 38,000  Level Memphis Center
06:14PM 35.8522 -89.6631 198° South 458 527 38,000  Level Memphis Center
06:15PM 35.7250 -89.6642 180° South 458 527 38,000 240 Level Memphis Center
06:17PM 35.6869 -89.4914 105° East  Level FlightAware Approximate
06:18PM 35.3753 -89.4456 139° Southeast 467 537 39,000  Level Memphis Center
06:19PM 35.2828 -89.3575 142° Southeast 467 537 39,000  Level Memphis Center
06:20PM 35.1881 -89.2467 136° Southeast 467 537 39,000  Level Memphis Center
06:21PM 35.0931 -89.1389 137° Southeast 467 537 39,000  Level Memphis Center
06:22PM 34.9961 -89.0289 137° Southeast 474 545 39,000  Level Memphis Center
06:23PM 34.8903 -88.9139 138° Southeast 474 545 39,000  Level Memphis Center
06:24PM 35.0460 -88.8104 139° Southeast  Level Estimated
06:24PM 34.7953 -88.8069 137° Southeast 474 545 39,000  Level Memphis Center
06:25PM 34.6978 -88.7000 138° Southeast 474 545 39,000  Level Memphis Center
06:26PM 34.6236 -88.6158 137° Southeast 474 545 39,000  Level Memphis Center
06:27PM 34.5178 -88.5069 140° Southeast 468 539 39,000  Level Memphis Center
06:28PM 34.4222 -88.4008 137° Southeast 463 533 39,000  Level Memphis Center
06:29PM 34.3267 -88.2947 137° Southeast 463 533 39,000  Level Memphis Center
06:30PM 34.2267 -88.1892 139° Southeast 463 533 39,000  Level Memphis Center
06:31PM 34.1286 -88.0739 136° Southeast 479 551 39,000  Level Memphis Center
06:32PM 34.0286 -87.9661 138° Southeast 479 551 39,000  Level Memphis Center
06:35PM 33.7875 -87.7081 138° Southeast 477 549 39,000  Level Atlanta Center
06:36PM 33.6925 -87.6017 137° Southeast 472 543 39,000  Level Atlanta Center
06:37PM 33.5975 -87.4978 138° Southeast 472 543 39,000  Level Atlanta Center
06:38PM 33.5003 -87.3919 138° Southeast 472 543 39,000  Level Atlanta Center
06:39PM 33.4028 -87.2886 138° Southeast 472 543 39,000  Level Atlanta Center
06:40PM 33.3072 -87.1881 139° Southeast 472 543 39,000  Level Atlanta Center
06:41PM 33.2119 -87.0853 138° Southeast 472 543 39,000  Level Atlanta Center
06:42PM 33.1261 -87.0006 140° Southeast 457 526 39,000  Level Atlanta Center
06:43PM 33.0286 -86.8956 138° Southeast 457 526 39,000  Level Atlanta Center
06:44PM 32.9350 -86.7911 137° Southeast 457 526 39,000  Level Atlanta Center
06:45PM 32.8411 -86.6892 138° Southeast 457 526 39,000  Level Atlanta Center
06:46PM 32.7431 -86.5900 140° Southeast 457 526 39,000  Level Atlanta Center
06:47PM 32.6489 -86.4911 139° Southeast 457 526 39,000  Level Atlanta Center
06:48PM 32.5528 -86.3897 138° Southeast 457 526 39,000  Level Atlanta Center
06:49PM 32.4461 -86.2886 141° Southeast 469 540 39,000  Level Atlanta Center
06:50PM 32.3542 -86.1853 136° Southeast 469 540 39,000  Level Atlanta Center
06:51PM 32.2769 -86.0631 127° Southeast 464 534 39,000  Level Atlanta Center
06:52PM 32.2564 -85.9103 99° East 451 519 39,000  Level Atlanta Center
06:53PM 32.2400 -85.7333 96° East 470 541 39,000  Level Atlanta Center
06:54PM 32.2253 -85.5833 97° East 476 548 39,000  Level Atlanta Center
06:55PM 32.2083 -85.4258 97° East 476 548 39,000  Level Atlanta Center
06:56PM 32.1956 -85.2711 96° East 476 548 39,000  Level Atlanta Center
06:57PM 32.1717 -85.0206 96° East 483 556 39,000  Level Jacksonville Center
06:58PM 32.1617 -84.8656 94° East 483 556 39,000  Level Jacksonville Center
06:59PM 32.1328 -84.7031 102° East 467 537 39,000  Level Jacksonville Center
07:00PM 32.0847 -84.5575 111° Southeast 467 537 39,000  Level Jacksonville Center
07:01PM 32.0025 -84.4408 130° Southeast 458 527 39,000  Level Jacksonville Center
07:02PM 31.8906 -84.3753 154° Southeast 444 511 39,000  Level Jacksonville Center
07:03PM 31.7681 -84.3219 160° South 453 521 39,000  Level Jacksonville Center
07:04PM 31.6475 -84.2714 160° South 454 522 39,000  Level Jacksonville Center
07:05PM 31.5269 -84.2233 161° South 454 522 39,000  Level Jacksonville Center
07:06PM 31.4083 -84.1706 159° South 459 528 39,000  Level Jacksonville Center
07:07PM 31.2900 -84.1178 159° South 459 528 39,000  Level Jacksonville Center
07:08PM 31.1714 -84.0678 160° South 459 528 39,000  Level Jacksonville Center
07:09PM 31.0528 -84.0178 160° South 459 528 39,000  Level Jacksonville Center
07:10PM 30.9342 -83.9681 160° South 459 528 39,000  Level Jacksonville Center
07:11PM 30.8156 -83.9183 160° South 459 528 39,000  Level Jacksonville Center
07:12PM 30.6972 -83.8661 159° South 459 528 39,000  Level Jacksonville Center
07:13PM 30.5783 -83.8192 161° South 459 528 39,000  Level Jacksonville Center
07:14PM 30.4661 -83.7697 159° South 445 512 39,000  Level Jacksonville Center
07:16PM 30.2369 -83.6764 161° South 452 520 39,000  Level Jacksonville Center
07:17PM 30.1183 -83.6275 160° South 452 520 39,000  Level Jacksonville Center
07:18PM 30.0017 -83.5786 160° South 452 520 39,000  Level Jacksonville Center
07:19PM 29.8828 -83.5297 160° South 452 520 39,000  Level Jacksonville Center
07:20PM 29.7619 -83.4786 160° South 452 520 39,000  Level Jacksonville Center
07:21PM 29.6433 -83.4325 161° South 452 520 39,000  Level Jacksonville Center
07:22PM 29.5244 -83.3842 161° South 457 526 39,000  Level Jacksonville Center
07:23PM 29.4056 -83.3336 160° South 452 520 39,000  Level Jacksonville Center
07:24PM 29.2889 -83.2831 159° South 452 520 39,000  Level Jacksonville Center
07:25PM 29.1700 -83.2375 161° South 452 520 39,000  Level Jacksonville Center
07:26PM 29.0533 -83.1872 159° South 447 514 39,000  Level Jacksonville Center
07:27PM 28.9344 -83.1392 161° South 447 514 39,000  Level Jacksonville Center
07:28PM 28.8197 -83.0939 161° South 442 509 39,000  Level Jacksonville Center
07:29PM 28.7028 -83.0442 160° South 442 509 39,000  Level Jacksonville Center
07:30PM 28.6069 -82.9589 142° Southeast 432 497 39,000 -60 Level Jacksonville Center
07:31PM 28.5233 -82.8619 134° Southeast 430 495 38,900  Descending Jacksonville Center
07:34PM 28.3158 -82.6336 136° Southeast 452 520 39,000  Climbing Miami Center
07:35PM 28.2156 -82.5317 138° Southeast 445 512 38,900  Descending Miami Center
07:36PM 28.1081 -82.4583 149° Southeast 445 512 39,000  Climbing Miami Center
07:37PM 27.9933 -82.4031 157° South 439 505 39,000  Level Miami Center
07:38PM 27.8781 -82.3647 164° South 439 505 39,000  Level Miami Center
07:39PM 27.7606 -82.3261 164° South 439 505 39,000  Level Miami Center
07:40PM 27.6267 -82.2800 163° South 444 511 39,000  Level Miami Center
07:41PM 27.5094 -82.2369 162° South 452 520 39,000  Level Miami Center
07:42PM 27.3875 -82.1986 164° South 452 520 39,000  Level Miami Center
07:43PM 27.2847 -82.1611 162° South 447 514 39,000  Level Miami Center
07:44PM 27.1506 -82.1153 163° South 452 520 39,000 -60 Level Miami Center
07:45PM 27.0292 -82.0725 163° South 452 520 38,900 -600 Descending Miami Center
07:46PM 26.9300 -81.9867 142° Southeast 445 512 37,900 -1,380 Descending Miami Center
07:47PM 26.8331 -81.8914 139° Southeast 454 522 36,200 -2,400 Descending Miami Center
07:48PM 26.7422 -81.7992 138° Southeast 454 522 33,200 -2,760 Descending Miami Center
07:49PM 26.6514 -81.7117 139° Southeast 448 516 30,700 -2,520 Descending Miami Center
07:50PM 26.5683 -81.6272 138° Southeast 420 483 28,200 -2,520 Descending Miami Center
07:51PM 26.4875 -81.5497 139° Southeast 398 458 25,700 -2,400 Descending Miami Center
07:52PM 26.4208 -81.4819 138° Southeast 388 447 23,400 -2,340 Descending Miami Center
07:53PM 26.3417 -81.4072 140° Southeast 382 440 21,100 -2,100 Descending Miami Center
07:54PM 26.2708 -81.3350 138° Southeast 362 417 19,200 -1,680 Descending Miami Center
07:55PM 26.2042 -81.2561 133° Southeast 349 402 17,800 -1,380 Descending Miami Center
07:56PM 26.1439 -81.1844 133° Southeast 325 374 16,500 -1,320 Descending Miami Center
07:57PM 26.0831 -81.1153 134° Southeast 319 367 15,200 -1,440 Descending Miami Center
07:58PM 26.0225 -81.0506 136° Southeast 289 333 13,800 -1,620 Descending Miami Center
07:59PM 25.9719 -80.9911 133° Southeast 278 320 12,300 -1,440 Descending Miami Center
08:00PM 25.9172 -80.9314 136° Southeast 276 318 11,100 -1,020 Descending Miami Center
08:01PM 25.8733 -80.8514 121° Southeast 263 303 10,000 -1,080 Descending Miami Center
08:02PM 25.8644 -80.8003 101° East 227 261 9,000 -1,560 Descending Miami Center
08:03PM 25.8597 -80.7333 94° East 222 255 7,400 -1,680 Descending Miami Center
08:04PM 25.8597 -80.6572 90° East 215 247 5,500 -1,680 Descending Miami Center
08:05PM 25.8528 -80.5992 98° East 207 238 4,000 -1,260 Descending Miami Center
08:06PM 25.8503 -80.5322 92° East 200 230 3,000 -660 Descending Miami Center
08:07PM 25.8394 -80.4650 100° East 194 223 2,600 -600 Descending Miami Center
08:08PM 25.8197 -80.4250 119° Southeast 152 175 1,900 -600 Descending Miami Center
08:09PM 25.7994 -80.3944 126° Southeast 137 158 1,500 -540 Descending Miami Center
08:10PM 25.7983 -80.3528 92° East 122 140 900 -600 Descending Miami Center